Dalfsen, Netherlands
Current Conditions -  °F | °C
As of 7:55 PM on Thursday 23 Oct 2014 (Local Time) from EHDL Reporting Station
Overcast Overcast  
Wind Chill: 55°   Ceiling: 4100
Heat Index: 55°   Visibility: 6mi
Dew Point: 50°   Wind: 9mph
Humidity: 82%   Direction: 190°S
Pressure: 30.15"   Gusts: NA
Location:  52.51°N, 6.26°E
Report Text: EHDL 231755Z AUTO 19008KT 9999 FEW017 OVC041 13/10 Q1021 BLU
Loading
Personal Weather Stations






























Interactive Weather Map
Tropical Storm Tracking
New forecast layout! Learn more

10-Day Weather Forecast

Advertisements
Track Severe Weather on mobile